Terminal Aerodrome Forecast
Issued by NWS Jackson, MS

Home | Current Version | Previous Version | Text Only | Print | Product List | Glossary On
Versions: 1 2 3 4 5 6 7 8 9 10 11 12 13 14 15
000
FTUS44 KJAN 291100
TAFGLH
TAF
KGLH 291120Z 2912/3012 20015KT P6SM BKN100
     FM291500 25017KT P6SM SCT100 BKN200
     FM291900 33012KT P6SM BKN030
     FM300000 35014G21KT P6SM BKN250
     FM300600 36008KT P6SM SKC=

USA.gov is the U.S. government's official web portal to all federal, state and local government web resources and services.